createdAt,value
2018-04-14T00:00:28.017Z,56.73
2018-04-14T00:03:30.092Z,62.93
2018-04-14T00:06:31.430Z,63.47
2018-04-14T00:09:32.790Z,58.67
2018-04-14T00:12:34.082Z,60.50
2018-04-14T00:15:35.430Z,57.93
2018-04-14T00:18:36.875Z,56.50
2018-04-14T00:21:38.898Z,61.67
2018-04-14T00:24:40.211Z,67.07
2018-04-14T00:27:41.602Z,60.37
2018-04-14T00:30:42.910Z,57.47
2018-04-14T00:33:44.168Z,71.70
2018-04-14T00:36:45.473Z,62.50
2018-04-14T00:39:47.502Z,66.17
2018-04-14T00:42:48.827Z,75.50
2018-04-14T00:45:50.960Z,64.13
2018-04-14T00:48:52.478Z,62.03
2018-04-14T00:51:53.748Z,69.13
2018-04-14T00:54:55.831Z,69.40
2018-04-14T00:57:57.919Z,70.73
2018-04-14T01:01:00.009Z,69.47
2018-04-14T01:04:01.347Z,82.30
2018-04-14T01:07:03.455Z,74.60
2018-04-14T01:10:04.825Z,73.40
2018-04-14T01:13:06.179Z,74.23
2018-04-14T01:16:07.497Z,68.00
2018-04-14T01:19:08.810Z,82.90
2018-04-14T01:22:10.117Z,67.47
2018-04-14T01:25:11.431Z,70.73
2018-04-14T01:28:13.496Z,71.77
2018-04-14T01:31:14.794Z,68.10
2018-04-14T01:34:16.066Z,77.03
2018-04-14T01:37:17.358Z,79.93
2018-04-14T01:40:18.840Z,68.90
2018-04-14T01:43:20.198Z,83.87
2018-04-14T01:46:21.556Z,68.53
2018-04-14T01:49:22.889Z,68.40
2018-04-14T01:52:24.323Z,74.00
2018-04-14T01:55:26.410Z,69.87
2018-04-14T01:58:28.649Z,67.73
2018-04-14T02:01:29.957Z,72.17
2018-04-14T02:04:31.290Z,74.63
2018-04-14T02:07:32.605Z,74.30
2018-04-14T02:10:33.924Z,75.53
2018-04-14T02:13:35.306Z,70.20
2018-04-14T02:16:36.659Z,75.87
2018-04-14T02:19:37.997Z,70.50
2018-04-14T02:22:39.361Z,67.03
2018-04-14T02:25:40.695Z,71.77
2018-04-14T02:28:42.755Z,73.57
2018-04-14T02:31:44.079Z,73.30
2018-04-14T02:34:46.132Z,80.37
2018-04-14T02:37:47.404Z,78.57
2018-04-14T02:43:56.834Z,72.90
2018-04-14T02:46:58.133Z,74.70
2018-04-14T02:50:00.215Z,80.77
2018-04-14T02:53:02.277Z,86.80
2018-04-14T02:56:03.654Z,75.60
2018-04-14T02:59:05.717Z,80.13
2018-04-14T03:02:07.136Z,79.00
2018-04-14T03:05:08.505Z,78.47
2018-04-14T03:08:09.841Z,79.80
2018-04-14T03:11:11.928Z,82.33
2018-04-14T03:14:13.971Z,81.73
2018-04-14T03:17:15.255Z,79.10
2018-04-14T03:20:16.572Z,78.90
2018-04-14T03:23:17.886Z,87.90
2018-04-14T03:26:19.351Z,90.40
2018-04-14T03:29:20.652Z,75.40
2018-04-14T03:32:22.072Z,76.67
2018-04-14T03:35:23.422Z,79.93
2018-04-14T03:38:24.841Z,87.77
2018-04-14T03:41:26.202Z,81.47
2018-04-14T03:44:28.382Z,81.30
2018-04-14T03:47:30.062Z,89.00
2018-04-14T03:50:32.112Z,84.33
2018-04-14T03:53:33.434Z,84.67
2018-04-14T03:56:34.728Z,85.40
2018-04-14T03:59:36.058Z,87.60
2018-04-14T04:02:37.403Z,87.97
2018-04-14T04:05:38.760Z,84.23
2018-04-14T04:08:40.858Z,81.37
2018-04-14T04:11:42.172Z,87.07
2018-04-14T04:14:43.455Z,83.80
2018-04-14T04:17:44.759Z,80.87
2018-04-14T04:21:04.479Z,79.30
2018-04-14T04:24:24.564Z,88.90
2018-04-14T04:27:25.895Z,80.97
2018-04-14T04:30:27.968Z,89.90
2018-04-14T04:33:29.276Z,88.50
2018-04-14T04:36:30.595Z,77.07
2018-04-14T04:39:31.967Z,87.40
2018-04-14T04:42:34.026Z,85.87
2018-04-14T04:45:35.456Z,77.73
2018-04-14T04:48:36.776Z,95.83
2018-04-14T04:51:38.084Z,89.30
2018-04-14T04:54:39.409Z,84.37
2018-04-14T04:57:41.498Z,85.50
2018-04-14T05:00:43.608Z,78.20
2018-04-14T05:03:44.884Z,74.77
2018-04-14T05:06:46.225Z,78.33
2018-04-14T05:09:48.281Z,87.50
2018-04-14T05:12:49.720Z,91.17
2018-04-14T05:15:51.339Z,78.23
2018-04-14T05:18:53.410Z,83.17
2018-04-14T05:21:54.723Z,82.47
2018-04-14T05:24:56.039Z,79.57
2018-04-14T05:27:57.543Z,79.10
2018-04-14T05:30:58.870Z,75.67
2018-04-14T05:34:00.182Z,80.63
2018-04-14T05:37:01.531Z,76.07
2018-04-14T05:40:02.892Z,87.50
2018-04-14T05:43:04.285Z,84.73
2018-04-14T05:46:05.657Z,104.73
2018-04-14T05:49:07.061Z,112.57
2018-04-14T05:55:16.483Z,112.50
2018-04-14T05:58:17.779Z,106.27
2018-04-14T06:01:19.107Z,103.60
2018-04-14T06:04:20.428Z,109.67
2018-04-14T06:07:21.749Z,117.57
2018-04-14T06:10:23.088Z,128.90
2018-04-14T06:13:25.190Z,118.90
2018-04-14T06:16:26.527Z,127.50
2018-04-14T06:19:27.880Z,120.93
2018-04-14T06:22:29.250Z,120.97
2018-04-14T06:25:30.622Z,134.70
2018-04-14T06:28:31.986Z,130.83
2018-04-14T06:31:33.281Z,126.47
2018-04-14T06:34:34.646Z,123.20
2018-04-14T06:37:35.982Z,116.90
2018-04-14T06:40:38.100Z,132.60
2018-04-14T06:43:39.453Z,119.77
2018-04-14T06:46:40.795Z,113.37
2018-04-14T06:49:42.179Z,121.77
2018-04-14T06:52:44.269Z,112.57
2018-04-14T06:55:45.588Z,128.13
2018-04-14T06:58:46.879Z,118.03
2018-04-14T07:01:48.942Z,108.43
2018-04-14T07:04:50.316Z,114.43
2018-04-14T07:07:51.641Z,106.80
2018-04-14T07:10:52.984Z,117.40
2018-04-14T07:13:54.334Z,113.33
2018-04-14T07:16:56.448Z,120.93
2018-04-14T07:19:57.803Z,113.20
2018-04-14T07:22:59.147Z,119.10
2018-04-14T07:26:01.208Z,134.53
2018-04-14T07:29:02.520Z,124.80
2018-04-14T07:32:03.887Z,115.67
2018-04-14T07:35:05.229Z,137.07
2018-04-14T07:38:07.306Z,141.77
2018-04-14T07:41:09.440Z,136.40
2018-04-14T07:44:10.786Z,124.33
2018-04-14T07:47:12.158Z,132.43
2018-04-14T07:50:13.544Z,106.23
2018-04-14T07:53:14.913Z,112.47
2018-04-14T07:56:16.255Z,95.53
2018-04-14T07:59:17.634Z,95.87
2018-04-14T08:02:18.979Z,100.13
2018-04-14T08:05:20.340Z,97.43
2018-04-14T08:08:21.704Z,84.30
2018-04-14T08:11:23.078Z,90.27
2018-04-14T08:14:24.427Z,89.70
2018-04-14T08:17:25.800Z,101.20
2018-04-14T08:20:27.162Z,98.47
2018-04-14T08:23:28.529Z,124.33
2018-04-14T08:26:29.904Z,90.77
2018-04-14T08:29:31.234Z,87.37
2018-04-14T08:32:33.314Z,104.33
2018-04-14T08:35:35.409Z,93.40
2018-04-14T08:38:37.554Z,84.97
2018-04-14T08:41:38.922Z,87.00
2018-04-14T08:44:40.347Z,105.33
2018-04-14T08:47:41.718Z,99.87
2018-04-14T08:50:43.097Z,95.83
2018-04-14T08:53:44.539Z,95.10
2018-04-14T08:56:45.908Z,99.70
2018-04-14T08:59:47.249Z,96.73
2018-04-14T09:02:49.311Z,90.03
2018-04-14T09:05:50.659Z,92.67
2018-04-14T09:08:51.983Z,91.03
2018-04-14T09:11:53.400Z,89.90
2018-04-14T09:14:54.731Z,94.07
2018-04-14T09:17:56.099Z,86.70
2018-04-14T09:20:57.462Z,78.73
2018-04-14T09:23:58.790Z,82.50
2018-04-14T09:27:00.915Z,80.07
2018-04-14T09:30:02.310Z,79.90
2018-04-14T09:33:03.658Z,84.80
2018-04-14T09:36:05.058Z,74.63
2018-04-14T09:39:07.177Z,78.83
2018-04-14T09:42:08.607Z,75.03
2018-04-14T09:45:10.025Z,67.47
2018-04-14T09:48:18.398Z,77.03
2018-04-14T09:51:19.742Z,79.53
2018-04-14T09:54:21.847Z,87.30
2018-04-14T09:57:23.203Z,80.60
2018-04-14T10:00:26.417Z,78.40
2018-04-14T10:03:27.792Z,85.97
2018-04-14T10:06:29.117Z,75.67
2018-04-14T10:09:30.523Z,80.00
2018-04-14T10:12:31.958Z,81.87
2018-04-14T10:15:33.325Z,91.63
2018-04-14T10:18:34.695Z,85.90
2018-04-14T10:21:36.091Z,90.33
2018-04-14T10:24:38.217Z,91.43
2018-04-14T10:27:39.629Z,93.87
2018-04-14T10:30:41.035Z,84.83
2018-04-14T10:33:42.393Z,89.73
2018-04-14T10:36:44.465Z,83.00
2018-04-14T10:39:46.597Z,93.30
2018-04-14T10:42:48.004Z,81.60
2018-04-14T10:45:49.342Z,82.43
2018-04-14T10:48:50.754Z,82.77
2018-04-14T10:51:52.126Z,81.07
2018-04-14T10:54:53.505Z,83.03
2018-04-14T10:57:54.913Z,81.70
2018-04-14T11:00:56.308Z,97.33
2018-04-14T11:03:58.419Z,102.47
2018-04-14T11:06:59.792Z,90.37
2018-04-14T11:10:01.140Z,82.17
2018-04-14T11:13:03.260Z,83.80
2018-04-14T11:16:04.634Z,79.77
2018-04-14T11:19:06.008Z,83.77
2018-04-14T11:22:07.371Z,85.53
2018-04-14T11:25:08.752Z,78.73
2018-04-14T11:28:10.136Z,86.93
2018-04-14T11:31:12.246Z,82.50
2018-04-14T11:34:13.614Z,82.47
2018-04-14T11:37:15.008Z,82.03
2018-04-14T11:40:16.343Z,93.63
2018-04-14T11:43:17.761Z,87.50
2018-04-14T11:46:19.210Z,82.90
2018-04-14T11:49:20.640Z,75.80
2018-04-14T11:52:22.056Z,74.27
2018-04-14T11:55:23.438Z,76.47
2018-04-14T11:58:25.557Z,77.13
2018-04-14T12:01:27.794Z,70.73
2018-04-14T12:04:29.222Z,80.20
2018-04-14T12:07:30.624Z,69.77
2018-04-14T12:10:31.989Z,69.03
2018-04-14T12:13:33.377Z,69.00
2018-04-14T12:16:34.746Z,66.37
2018-04-14T12:19:36.149Z,78.53
2018-04-14T12:22:37.564Z,70.50
2018-04-14T12:25:38.960Z,63.43
2018-04-14T12:28:41.096Z,62.43
2018-04-14T12:31:42.475Z,65.83
2018-04-14T12:34:43.841Z,72.87
2018-04-14T12:37:45.227Z,62.90
2018-04-14T12:40:46.624Z,61.80
2018-04-14T12:43:47.995Z,58.70
2018-04-14T12:46:49.380Z,59.57
2018-04-14T12:49:50.849Z,59.80
2018-04-14T12:52:52.274Z,63.23
2018-04-14T12:55:54.437Z,53.73
2018-04-14T12:58:55.837Z,61.53
2018-04-14T13:01:57.300Z,58.37
2018-04-14T13:04:58.677Z,58.30
2018-04-14T13:08:00.104Z,55.13
2018-04-14T13:11:01.529Z,57.07
2018-04-14T13:14:02.914Z,43.57
2018-04-14T13:17:04.366Z,59.30
2018-04-14T13:20:05.794Z,49.70
2018-04-14T13:23:07.902Z,48.63
2018-04-14T13:26:09.342Z,46.60
2018-04-14T13:29:11.454Z,52.47
2018-04-14T13:32:12.835Z,45.30
2018-04-14T13:35:14.230Z,45.70
2018-04-14T13:38:15.586Z,42.20
2018-04-14T13:44:25.078Z,52.07
2018-04-14T13:47:26.473Z,50.77
2018-04-14T13:50:28.605Z,43.20
2018-04-14T13:53:30.002Z,45.30
2018-04-14T13:56:31.392Z,40.40
2018-04-14T13:59:33.506Z,47.30
2018-04-14T14:02:34.985Z,46.33
2018-04-14T14:05:36.432Z,44.37
2018-04-14T14:08:37.918Z,44.20
2018-04-14T14:11:39.317Z,41.13
2018-04-14T14:14:40.783Z,36.90
2018-04-14T14:17:42.185Z,40.23
2018-04-14T14:20:44.310Z,46.23
2018-04-14T14:23:45.702Z,36.23
2018-04-14T14:26:47.145Z,38.80
2018-04-14T14:29:48.552Z,44.20
2018-04-14T14:32:49.960Z,38.93
2018-04-14T14:35:51.384Z,38.77
2018-04-14T14:38:52.810Z,31.57
2018-04-14T14:41:54.183Z,26.57
2018-04-14T14:44:55.610Z,28.40
2018-04-14T14:47:56.998Z,25.97
2018-04-14T14:50:58.455Z,26.23
2018-04-14T14:53:59.852Z,26.90
2018-04-14T14:57:01.259Z,29.60
2018-04-14T15:00:02.699Z,29.60
2018-04-14T15:03:04.217Z,27.63
2018-04-14T15:06:05.616Z,32.77
2018-04-14T15:09:07.064Z,26.67
2018-04-14T15:12:08.432Z,24.90
2018-04-14T15:15:09.860Z,23.00
2018-04-14T15:18:11.249Z,24.27
2018-04-14T15:21:13.353Z,23.27
2018-04-14T15:24:14.764Z,28.37
2018-04-14T15:27:16.207Z,27.80
2018-04-14T15:30:17.576Z,28.07
2018-04-14T15:33:18.976Z,33.13
2018-04-14T15:36:20.351Z,28.77
2018-04-14T15:39:22.480Z,38.37
2018-04-14T15:42:23.833Z,39.97
2018-04-14T15:45:25.221Z,33.37
2018-04-14T15:48:26.629Z,38.83
2018-04-14T15:51:28.026Z,38.83
2018-04-14T15:54:29.357Z,40.97
2018-04-14T15:57:30.753Z,35.03
2018-04-14T16:00:32.112Z,47.30
2018-04-14T16:03:34.222Z,40.63
2018-04-14T16:06:35.565Z,33.57
2018-04-14T16:09:37.007Z,43.10
2018-04-14T16:12:39.111Z,47.33
2018-04-14T16:15:40.472Z,36.00
2018-04-14T16:18:42.597Z,41.90
2018-04-14T16:21:43.967Z,41.97
2018-04-14T16:24:45.305Z,44.63
2018-04-14T16:27:46.678Z,37.90
2018-04-14T16:30:48.070Z,43.67
2018-04-14T16:33:49.456Z,36.63
2018-04-14T16:36:50.802Z,39.60
2018-04-14T16:39:52.201Z,32.80
2018-04-14T16:42:53.586Z,37.30
2018-04-14T16:45:54.933Z,33.10
2018-04-14T16:48:57.038Z,34.10
2018-04-14T16:51:58.424Z,36.77
2018-04-14T16:54:59.845Z,33.00
2018-04-14T16:58:01.936Z,35.23
2018-04-14T17:01:04.079Z,35.93
2018-04-14T17:04:05.484Z,36.17
2018-04-14T17:07:07.573Z,38.23
2018-04-14T17:10:09.667Z,35.77
2018-04-14T17:13:11.788Z,30.40
2018-04-14T17:16:13.100Z,31.33
2018-04-14T17:19:15.154Z,35.17
2018-04-14T17:22:16.520Z,40.30
2018-04-14T17:25:17.919Z,43.93
2018-04-14T17:28:19.257Z,45.67
2018-04-14T17:31:20.630Z,62.07
2018-04-14T17:34:21.950Z,57.17
2018-04-14T17:37:23.305Z,54.80
2018-04-14T17:40:24.674Z,51.60
2018-04-14T17:43:26.029Z,54.37
2018-04-14T17:46:27.403Z,54.30
2018-04-14T17:49:28.755Z,55.13
2018-04-14T17:52:30.855Z,51.50
2018-04-14T17:55:32.215Z,58.23
2018-04-14T17:58:33.978Z,53.90
2018-04-14T18:01:36.039Z,54.80
2018-04-14T18:04:38.139Z,50.60
2018-04-14T18:07:40.249Z,50.77
2018-04-14T18:10:41.617Z,53.93
2018-04-14T18:13:42.944Z,52.27
2018-04-14T18:16:45.037Z,52.07
2018-04-14T18:19:47.125Z,58.20
2018-04-14T18:22:48.444Z,53.43
2018-04-14T18:25:49.755Z,55.23
2018-04-14T18:28:51.115Z,54.90
2018-04-14T18:31:53.181Z,45.93
2018-04-14T18:34:55.276Z,56.20
2018-04-14T18:37:57.363Z,51.80
2018-04-14T18:40:59.424Z,57.73
2018-04-14T18:44:01.527Z,60.27
2018-04-14T18:47:02.906Z,62.80
2018-04-14T18:50:04.268Z,65.90
2018-04-14T18:53:05.584Z,65.93
2018-04-14T18:56:06.911Z,69.23
2018-04-14T18:59:08.251Z,56.80
2018-04-14T19:02:10.335Z,56.20
2018-04-14T19:05:11.730Z,64.03
2018-04-14T19:08:13.048Z,72.80
2018-04-14T19:11:15.093Z,73.50
2018-04-14T19:14:16.383Z,70.47
2018-04-14T19:17:17.705Z,80.70
2018-04-14T19:20:19.205Z,75.97
2018-04-14T19:23:20.743Z,67.73
2018-04-14T19:26:22.072Z,72.30
2018-04-14T19:29:24.123Z,62.90
2018-04-14T19:32:26.050Z,65.83
2018-04-14T19:35:27.403Z,67.87
2018-04-14T19:38:29.440Z,60.50
2018-04-14T19:41:30.841Z,60.00
2018-04-14T19:44:32.162Z,68.30
2018-04-14T19:47:33.604Z,71.83
2018-04-14T19:50:34.917Z,69.93
2018-04-14T19:53:36.265Z,68.40
2018-04-14T19:56:37.601Z,79.67
2018-04-14T19:59:38.985Z,67.93
2018-04-14T20:02:40.282Z,74.63
2018-04-14T20:05:41.627Z,72.97
2018-04-14T20:08:42.943Z,71.50
2018-04-14T20:11:44.254Z,77.43
2018-04-14T20:14:45.542Z,80.33
2018-04-14T20:17:46.890Z,87.30
2018-04-14T20:20:48.215Z,74.73
2018-04-14T20:23:49.586Z,65.60
2018-04-14T20:26:50.873Z,80.00
2018-04-14T20:29:52.205Z,64.20
2018-04-14T20:32:53.656Z,70.37
2018-04-14T20:35:55.838Z,64.67
2018-04-14T20:38:58.291Z,71.03
2018-04-14T20:41:59.782Z,73.03
2018-04-14T20:45:01.081Z,67.13
2018-04-14T20:48:02.446Z,72.33
2018-04-14T20:51:03.741Z,73.90
2018-04-14T20:54:05.061Z,83.90
2018-04-14T20:57:07.076Z,87.60
2018-04-14T21:00:08.425Z,90.30
2018-04-14T21:03:09.684Z,80.43
2018-04-14T21:06:11.104Z,75.90
2018-04-14T21:09:12.466Z,82.93
2018-04-14T21:12:13.769Z,85.57
2018-04-14T21:15:15.797Z,91.80
2018-04-14T21:18:17.146Z,82.63
2018-04-14T21:21:18.538Z,87.10
2018-04-14T21:24:20.045Z,85.83
2018-04-14T21:27:22.378Z,93.83
2018-04-14T21:30:23.734Z,75.60
2018-04-14T21:33:25.032Z,82.73
2018-04-14T21:36:26.346Z,84.73
2018-04-14T21:39:27.708Z,85.73
2018-04-14T21:42:28.979Z,89.47
2018-04-14T21:45:30.410Z,82.07
2018-04-14T21:48:31.758Z,80.53
2018-04-14T21:51:33.083Z,76.97
2018-04-14T21:54:34.852Z,81.27
2018-04-14T21:57:36.281Z,80.17
2018-04-14T22:00:37.634Z,79.07
2018-04-14T22:03:38.909Z,83.90
2018-04-14T22:06:40.202Z,91.33
2018-04-14T22:09:41.491Z,78.60
2018-04-14T22:12:42.863Z,79.33
2018-04-14T22:15:44.875Z,84.17
2018-04-14T22:18:46.187Z,79.17
2018-04-14T22:21:47.505Z,84.13
2018-04-14T22:24:49.044Z,92.17
2018-04-14T22:27:50.782Z,77.50
2018-04-14T22:30:52.887Z,87.67
2018-04-14T22:33:54.199Z,86.60
2018-04-14T22:36:55.539Z,85.60
2018-04-14T22:39:56.883Z,83.70
2018-04-14T22:42:58.220Z,82.77
2018-04-14T22:46:00.267Z,86.57
2018-04-14T22:49:01.638Z,87.67
2018-04-14T22:52:02.952Z,84.87
2018-04-14T22:55:04.350Z,89.73
2018-04-14T22:58:05.723Z,84.10
2018-04-14T23:01:07.085Z,87.20
2018-04-14T23:04:08.398Z,88.20
2018-04-14T23:07:09.684Z,80.37
2018-04-14T23:10:10.997Z,76.80
2018-04-14T23:13:12.289Z,85.97
2018-04-14T23:16:14.362Z,86.03
2018-04-14T23:19:16.380Z,89.17
2018-04-14T23:22:17.683Z,79.93
2018-04-14T23:25:19.332Z,85.97
2018-04-14T23:28:20.761Z,85.83
2018-04-14T23:31:22.845Z,84.40
2018-04-14T23:34:24.743Z,82.80
2018-04-14T23:37:26.041Z,84.27
2018-04-14T23:40:27.361Z,85.67
2018-04-14T23:43:28.660Z,82.27
2018-04-14T23:46:30.084Z,87.40
2018-04-14T23:49:31.393Z,90.83
2018-04-14T23:52:34.210Z,79.80
2018-04-14T23:55:35.754Z,79.73
2018-04-14T23:58:37.085Z,81.50
